sensor_id;sensor_type;location;lat;lon;timestamp;P1;durP1;ratioP1;P2;durP2;ratioP2
24305;SDS011;12423;48.768;8.850;2023-02-15T00:01:46;44.53;;;12.00;;
24305;SDS011;12423;48.768;8.850;2023-02-15T00:03:48;26.73;;;7.83;;
24305;SDS011;12423;48.768;8.850;2023-02-15T00:05:50;20.93;;;7.23;;
24305;SDS011;12423;48.768;8.850;2023-02-15T00:07:51;22.67;;;7.30;;
24305;SDS011;12423;48.768;8.850;2023-02-15T00:09:52;33.97;;;9.40;;
24305;SDS011;12423;48.768;8.850;2023-02-15T00:11:53;7.97;;;3.67;;
24305;SDS011;12423;48.768;8.850;2023-02-15T00:13:54;26.13;;;7.53;;
24305;SDS011;12423;48.768;8.850;2023-02-15T00:15:59;22.90;;;7.72;;
24305;SDS011;12423;48.768;8.850;2023-02-15T00:18:01;27.10;;;8.48;;
24305;SDS011;12423;48.768;8.850;2023-02-15T00:20:02;43.78;;;11.93;;
24305;SDS011;12423;48.768;8.850;2023-02-15T00:22:03;131.85;;;32.08;;
24305;SDS011;12423;48.768;8.850;2023-02-15T00:24:05;104.55;;;24.92;;
24305;SDS011;12423;48.768;8.850;2023-02-15T00:26:11;57.20;;;14.90;;
24305;SDS011;12423;48.768;8.850;2023-02-15T00:28:15;41.17;;;12.32;;
24305;SDS011;12423;48.768;8.850;2023-02-15T00:30:16;42.60;;;11.53;;
24305;SDS011;12423;48.768;8.850;2023-02-15T00:32:17;49.40;;;13.07;;
24305;SDS011;12423;48.768;8.850;2023-02-15T00:34:19;41.80;;;11.70;;
24305;SDS011;12423;48.768;8.850;2023-02-15T00:36:21;44.27;;;12.77;;
24305;SDS011;12423;48.768;8.850;2023-02-15T00:38:23;38.63;;;10.77;;
24305;SDS011;12423;48.768;8.850;2023-02-15T00:40:24;43.97;;;12.10;;
24305;SDS011;12423;48.768;8.850;2023-02-15T00:42:25;101.35;;;24.80;;
24305;SDS011;12423;48.768;8.850;2023-02-15T00:44:26;75.17;;;18.43;;
24305;SDS011;12423;48.768;8.850;2023-02-15T00:46:31;131.23;;;32.17;;
24305;SDS011;12423;48.768;8.850;2023-02-15T00:48:32;48.15;;;12.80;;
24305;SDS011;12423;48.768;8.850;2023-02-15T00:50:33;33.67;;;9.50;;
24305;SDS011;12423;48.768;8.850;2023-02-15T00:52:34;46.30;;;12.82;;
24305;SDS011;12423;48.768;8.850;2023-02-15T00:54:37;46.70;;;13.00;;
24305;SDS011;12423;48.768;8.850;2023-02-15T00:56:39;40.90;;;11.13;;
24305;SDS011;12423;48.768;8.850;2023-02-15T00:58:40;36.40;;;9.87;;
24305;SDS011;12423;48.768;8.850;2023-02-15T01:00:44;57.08;;;14.45;;
24305;SDS011;12423;48.768;8.850;2023-02-15T01:02:47;38.50;;;10.30;;
24305;SDS011;12423;48.768;8.850;2023-02-15T01:04:48;44.25;;;12.30;;
24305;SDS011;12423;48.768;8.850;2023-02-15T01:06:50;53.95;;;13.93;;
24305;SDS011;12423;48.768;8.850;2023-02-15T01:08:51;63.10;;;16.33;;
24305;SDS011;12423;48.768;8.850;2023-02-15T01:10:52;84.68;;;22.33;;
24305;SDS011;12423;48.768;8.850;2023-02-15T01:12:54;86.50;;;21.77;;
24305;SDS011;12423;48.768;8.850;2023-02-15T01:14:55;60.10;;;15.77;;
24305;SDS011;12423;48.768;8.850;2023-02-15T01:16:56;41.38;;;11.95;;
24305;SDS011;12423;48.768;8.850;2023-02-15T01:18:58;55.83;;;15.00;;
24305;SDS011;12423;48.768;8.850;2023-02-15T01:20:59;58.95;;;18.17;;
24305;SDS011;12423;48.768;8.850;2023-02-15T01:23:00;69.50;;;18.35;;
24305;SDS011;12423;48.768;8.850;2023-02-15T01:25:01;66.82;;;17.08;;
24305;SDS011;12423;48.768;8.850;2023-02-15T01:27:03;53.80;;;13.77;;
24305;SDS011;12423;48.768;8.850;2023-02-15T01:29:04;53.20;;;14.18;;
24305;SDS011;12423;48.768;8.850;2023-02-15T01:31:06;41.53;;;13.18;;
24305;SDS011;12423;48.768;8.850;2023-02-15T01:33:09;45.72;;;12.63;;
24305;SDS011;12423;48.768;8.850;2023-02-15T01:35:19;40.15;;;10.65;;
24305;SDS011;12423;48.768;8.850;2023-02-15T01:37:21;61.20;;;16.23;;
24305;SDS011;12423;48.768;8.850;2023-02-15T01:39:22;64.07;;;16.63;;
24305;SDS011;12423;48.768;8.850;2023-02-15T01:41:24;60.90;;;15.75;;
24305;SDS011;12423;48.768;8.850;2023-02-15T01:43:44;54.20;;;14.18;;
24305;SDS011;12423;48.768;8.850;2023-02-15T01:45:47;49.92;;;12.93;;
24305;SDS011;12423;48.768;8.850;2023-02-15T01:47:58;76.63;;;19.80;;
24305;SDS011;12423;48.768;8.850;2023-02-15T01:50:10;75.63;;;18.60;;
24305;SDS011;12423;48.768;8.850;2023-02-15T01:52:14;103.72;;;25.25;;
24305;SDS011;12423;48.768;8.850;2023-02-15T01:54:51;81.97;;;20.35;;
24305;SDS011;12423;48.768;8.850;2023-02-15T01:56:46;78.38;;;18.95;;
24305;SDS011;12423;48.768;8.850;2023-02-15T01:58:51;111.57;;;27.30;;
24305;SDS011;12423;48.768;8.850;2023-02-15T02:00:56;90.70;;;23.90;;
24305;SDS011;12423;48.768;8.850;2023-02-15T02:02:59;85.55;;;21.50;;
24305;SDS011;12423;48.768;8.850;2023-02-15T02:05:01;95.45;;;23.30;;
24305;SDS011;12423;48.768;8.850;2023-02-15T02:07:07;91.80;;;22.02;;
24305;SDS011;12423;48.768;8.850;2023-02-15T02:09:10;99.07;;;24.73;;
24305;SDS011;12423;48.768;8.850;2023-02-15T02:11:12;93.78;;;22.00;;
24305;SDS011;12423;48.768;8.850;2023-02-15T02:13:14;84.07;;;20.88;;
24305;SDS011;12423;48.768;8.850;2023-02-15T02:15:15;130.35;;;32.20;;
24305;SDS011;12423;48.768;8.850;2023-02-15T02:17:42;91.72;;;21.88;;
24305;SDS011;12423;48.768;8.850;2023-02-15T02:42:30;86.78;;;21.08;;
24305;SDS011;12423;48.768;8.850;2023-02-15T02:44:41;131.63;;;32.60;;
24305;SDS011;12423;48.768;8.850;2023-02-15T02:48:58;131.00;;;31.73;;
24305;SDS011;12423;48.768;8.850;2023-02-15T02:51:00;133.82;;;34.70;;
24305;SDS011;12423;48.768;8.850;2023-02-15T02:53:01;131.57;;;32.28;;
24305;SDS011;12423;48.768;8.850;2023-02-15T02:55:10;58.92;;;15.35;;
24305;SDS011;12423;48.768;8.850;2023-02-15T02:57:16;128.88;;;30.90;;
24305;SDS011;12423;48.768;8.850;2023-02-15T02:59:23;131.05;;;31.95;;
24305;SDS011;12423;48.768;8.850;2023-02-15T03:01:35;131.13;;;31.77;;
24305;SDS011;12423;48.768;8.850;2023-02-15T03:03:44;130.35;;;31.45;;
24305;SDS011;12423;48.768;8.850;2023-02-15T03:05:50;131.80;;;33.03;;
24305;SDS011;12423;48.768;8.850;2023-02-15T03:07:55;128.50;;;30.85;;
24305;SDS011;12423;48.768;8.850;2023-02-15T03:10:06;132.60;;;32.10;;
24305;SDS011;12423;48.768;8.850;2023-02-15T03:12:09;123.95;;;30.23;;
24305;SDS011;12423;48.768;8.850;2023-02-15T03:14:24;135.32;;;32.65;;
24305;SDS011;12423;48.768;8.850;2023-02-15T03:16:25;128.13;;;30.80;;
24305;SDS011;12423;48.768;8.850;2023-02-15T03:18:28;126.35;;;30.73;;
24305;SDS011;12423;48.768;8.850;2023-02-15T03:20:35;122.50;;;29.75;;
24305;SDS011;12423;48.768;8.850;2023-02-15T03:22:39;130.77;;;31.20;;
24305;SDS011;12423;48.768;8.850;2023-02-15T03:24:49;123.38;;;29.17;;
24305;SDS011;12423;48.768;8.850;2023-02-15T03:26:51;125.57;;;30.63;;
24305;SDS011;12423;48.768;8.850;2023-02-15T03:28:56;108.47;;;26.35;;
24305;SDS011;12423;48.768;8.850;2023-02-15T03:31:00;128.55;;;32.03;;
24305;SDS011;12423;48.768;8.850;2023-02-15T03:33:03;128.95;;;31.42;;
24305;SDS011;12423;48.768;8.850;2023-02-15T03:35:06;127.30;;;31.40;;
24305;SDS011;12423;48.768;8.850;2023-02-15T03:39:38;133.70;;;32.97;;
24305;SDS011;12423;48.768;8.850;2023-02-15T03:41:48;134.63;;;33.60;;
24305;SDS011;12423;48.768;8.850;2023-02-15T03:43:56;132.23;;;32.00;;
24305;SDS011;12423;48.768;8.850;2023-02-15T03:46:37;131.23;;;31.52;;
24305;SDS011;12423;48.768;8.850;2023-02-15T03:48:39;131.35;;;31.77;;
24305;SDS011;12423;48.768;8.850;2023-02-15T03:50:44;130.63;;;31.55;;
24305;SDS011;12423;48.768;8.850;2023-02-15T03:53:05;133.48;;;32.75;;
24305;SDS011;12423;48.768;8.850;2023-02-15T03:55:08;133.38;;;33.08;;
24305;SDS011;12423;48.768;8.850;2023-02-15T03:59:39;132.73;;;32.90;;
24305;SDS011;12423;48.768;8.850;2023-02-15T04:04:18;139.65;;;34.08;;
24305;SDS011;12423;48.768;8.850;2023-02-15T04:06:21;141.35;;;34.67;;
24305;SDS011;12423;48.768;8.850;2023-02-15T04:08:22;141.48;;;35.05;;
24305;SDS011;12423;48.768;8.850;2023-02-15T04:10:43;140.48;;;35.10;;
24305;SDS011;12423;48.768;8.850;2023-02-15T04:12:53;141.15;;;34.90;;
24305;SDS011;12423;48.768;8.850;2023-02-15T04:14:54;140.27;;;34.50;;
24305;SDS011;12423;48.768;8.850;2023-02-15T04:19:14;141.48;;;34.90;;
24305;SDS011;12423;48.768;8.850;2023-02-15T04:21:34;142.85;;;36.10;;
24305;SDS011;12423;48.768;8.850;2023-02-15T04:23:53;141.75;;;35.05;;
24305;SDS011;12423;48.768;8.850;2023-02-15T04:26:13;141.02;;;34.17;;
24305;SDS011;12423;48.768;8.850;2023-02-15T04:28:14;140.43;;;34.53;;
24305;SDS011;12423;48.768;8.850;2023-02-15T04:30:16;141.32;;;34.95;;
24305;SDS011;12423;48.768;8.850;2023-02-15T04:32:18;140.88;;;34.88;;
24305;SDS011;12423;48.768;8.850;2023-02-15T04:34:19;138.65;;;34.58;;
24305;SDS011;12423;48.768;8.850;2023-02-15T04:36:20;141.43;;;35.15;;
24305;SDS011;12423;48.768;8.850;2023-02-15T04:38:22;141.65;;;34.63;;
24305;SDS011;12423;48.768;8.850;2023-02-15T04:40:23;141.43;;;35.60;;
24305;SDS011;12423;48.768;8.850;2023-02-15T04:42:24;140.90;;;34.47;;
24305;SDS011;12423;48.768;8.850;2023-02-15T04:44:26;139.90;;;34.35;;
24305;SDS011;12423;48.768;8.850;2023-02-15T04:46:27;138.40;;;34.10;;
24305;SDS011;12423;48.768;8.850;2023-02-15T04:48:28;139.02;;;34.60;;
24305;SDS011;12423;48.768;8.850;2023-02-15T04:50:29;140.18;;;35.22;;
24305;SDS011;12423;48.768;8.850;2023-02-15T04:52:30;140.98;;;35.33;;
24305;SDS011;12423;48.768;8.850;2023-02-15T04:54:31;140.35;;;34.65;;
24305;SDS011;12423;48.768;8.850;2023-02-15T04:56:32;137.55;;;34.30;;
24305;SDS011;12423;48.768;8.850;2023-02-15T04:58:35;134.13;;;33.45;;
24305;SDS011;12423;48.768;8.850;2023-02-15T05:00:37;131.30;;;33.40;;
24305;SDS011;12423;48.768;8.850;2023-02-15T05:02:38;131.80;;;33.00;;
24305;SDS011;12423;48.768;8.850;2023-02-15T05:04:39;130.55;;;33.00;;
24305;SDS011;12423;48.768;8.850;2023-02-15T05:06:40;127.85;;;32.55;;
24305;SDS011;12423;48.768;8.850;2023-02-15T05:08:41;128.98;;;31.90;;
24305;SDS011;12423;48.768;8.850;2023-02-15T05:10:42;127.43;;;31.77;;
24305;SDS011;12423;48.768;8.850;2023-02-15T05:12:43;129.65;;;32.20;;
24305;SDS011;12423;48.768;8.850;2023-02-15T05:14:44;127.60;;;32.47;;
24305;SDS011;12423;48.768;8.850;2023-02-15T05:16:45;126.55;;;32.47;;
24305;SDS011;12423;48.768;8.850;2023-02-15T05:18:46;127.10;;;31.88;;
24305;SDS011;12423;48.768;8.850;2023-02-15T05:20:47;130.23;;;32.47;;
24305;SDS011;12423;48.768;8.850;2023-02-15T05:22:48;131.98;;;32.75;;
24305;SDS011;12423;48.768;8.850;2023-02-15T05:24:53;129.45;;;31.88;;
24305;SDS011;12423;48.768;8.850;2023-02-15T05:27:13;128.40;;;31.92;;
24305;SDS011;12423;48.768;8.850;2023-02-15T05:29:32;128.30;;;32.60;;
24305;SDS011;12423;48.768;8.850;2023-02-15T05:31:33;128.65;;;32.75;;
24305;SDS011;12423;48.768;8.850;2023-02-15T05:33:35;126.15;;;31.88;;
24305;SDS011;12423;48.768;8.850;2023-02-15T05:35:37;128.00;;;32.38;;
24305;SDS011;12423;48.768;8.850;2023-02-15T05:37:38;125.78;;;31.85;;
24305;SDS011;12423;48.768;8.850;2023-02-15T05:39:39;131.63;;;33.10;;
24305;SDS011;12423;48.768;8.850;2023-02-15T05:41:40;129.48;;;32.55;;
24305;SDS011;12423;48.768;8.850;2023-02-15T05:43:41;128.77;;;32.45;;
24305;SDS011;12423;48.768;8.850;2023-02-15T05:45:46;128.88;;;32.05;;
24305;SDS011;12423;48.768;8.850;2023-02-15T05:47:50;128.60;;;32.45;;
24305;SDS011;12423;48.768;8.850;2023-02-15T05:49:52;126.88;;;31.88;;
24305;SDS011;12423;48.768;8.850;2023-02-15T05:51:52;130.43;;;32.65;;
24305;SDS011;12423;48.768;8.850;2023-02-15T05:53:53;130.43;;;32.65;;
24305;SDS011;12423;48.768;8.850;2023-02-15T05:55:55;130.02;;;32.20;;
24305;SDS011;12423;48.768;8.850;2023-02-15T05:57:59;139.45;;;34.85;;
24305;SDS011;12423;48.768;8.850;2023-02-15T06:00:00;138.98;;;34.40;;
24305;SDS011;12423;48.768;8.850;2023-02-15T06:02:12;135.10;;;33.65;;
24305;SDS011;12423;48.768;8.850;2023-02-15T06:04:13;130.13;;;32.47;;
24305;SDS011;12423;48.768;8.850;2023-02-15T06:06:14;130.10;;;32.78;;
24305;SDS011;12423;48.768;8.850;2023-02-15T06:08:16;130.32;;;32.28;;
24305;SDS011;12423;48.768;8.850;2023-02-15T06:10:17;131.45;;;32.55;;
24305;SDS011;12423;48.768;8.850;2023-02-15T06:12:18;129.43;;;32.00;;
24305;SDS011;12423;48.768;8.850;2023-02-15T06:14:19;129.13;;;32.25;;
24305;SDS011;12423;48.768;8.850;2023-02-15T06:16:20;128.98;;;32.08;;
24305;SDS011;12423;48.768;8.850;2023-02-15T06:18:21;128.55;;;32.42;;
24305;SDS011;12423;48.768;8.850;2023-02-15T06:20:23;129.18;;;33.45;;
24305;SDS011;12423;48.768;8.850;2023-02-15T06:22:24;128.90;;;33.35;;
24305;SDS011;12423;48.768;8.850;2023-02-15T06:24:24;129.07;;;33.67;;
24305;SDS011;12423;48.768;8.850;2023-02-15T06:26:25;129.65;;;32.50;;
24305;SDS011;12423;48.768;8.850;2023-02-15T06:28:26;130.13;;;32.08;;
24305;SDS011;12423;48.768;8.850;2023-02-15T06:30:27;131.25;;;33.97;;
24305;SDS011;12423;48.768;8.850;2023-02-15T06:32:28;129.68;;;32.67;;
24305;SDS011;12423;48.768;8.850;2023-02-15T06:34:29;131.93;;;33.05;;
24305;SDS011;12423;48.768;8.850;2023-02-15T06:36:30;135.43;;;33.67;;
24305;SDS011;12423;48.768;8.850;2023-02-15T06:38:32;133.77;;;33.70;;
24305;SDS011;12423;48.768;8.850;2023-02-15T06:40:33;137.45;;;34.10;;
24305;SDS011;12423;48.768;8.850;2023-02-15T06:42:34;132.20;;;33.20;;
24305;SDS011;12423;48.768;8.850;2023-02-15T06:44:35;140.85;;;35.47;;
24305;SDS011;12423;48.768;8.850;2023-02-15T06:46:36;141.55;;;35.53;;
24305;SDS011;12423;48.768;8.850;2023-02-15T06:48:37;139.45;;;33.90;;
24305;SDS011;12423;48.768;8.850;2023-02-15T06:50:38;139.55;;;34.78;;
24305;SDS011;12423;48.768;8.850;2023-02-15T06:52:39;134.38;;;33.05;;
24305;SDS011;12423;48.768;8.850;2023-02-15T06:54:40;138.80;;;34.50;;
24305;SDS011;12423;48.768;8.850;2023-02-15T06:56:41;138.77;;;34.58;;
24305;SDS011;12423;48.768;8.850;2023-02-15T06:58:44;138.13;;;34.03;;
24305;SDS011;12423;48.768;8.850;2023-02-15T07:00:46;139.75;;;34.85;;
24305;SDS011;12423;48.768;8.850;2023-02-15T07:02:47;138.30;;;33.78;;
24305;SDS011;12423;48.768;8.850;2023-02-15T07:04:48;139.82;;;34.45;;
24305;SDS011;12423;48.768;8.850;2023-02-15T07:06:49;139.95;;;34.42;;
24305;SDS011;12423;48.768;8.850;2023-02-15T07:08:50;140.27;;;34.33;;
24305;SDS011;12423;48.768;8.850;2023-02-15T07:10:51;141.05;;;35.25;;
24305;SDS011;12423;48.768;8.850;2023-02-15T07:12:53;141.02;;;34.78;;
24305;SDS011;12423;48.768;8.850;2023-02-15T07:14:54;141.05;;;34.40;;
24305;SDS011;12423;48.768;8.850;2023-02-15T07:16:55;140.25;;;34.30;;
24305;SDS011;12423;48.768;8.850;2023-02-15T07:18:56;141.38;;;35.22;;
24305;SDS011;12423;48.768;8.850;2023-02-15T07:20:57;142.10;;;36.03;;
24305;SDS011;12423;48.768;8.850;2023-02-15T07:22:58;140.05;;;34.15;;
24305;SDS011;12423;48.768;8.850;2023-02-15T07:24:59;139.65;;;34.80;;
24305;SDS011;12423;48.768;8.850;2023-02-15T07:27:00;139.90;;;34.85;;
24305;SDS011;12423;48.768;8.850;2023-02-15T07:29:01;140.68;;;35.53;;
24305;SDS011;12423;48.768;8.850;2023-02-15T07:31:02;141.77;;;36.03;;
24305;SDS011;12423;48.768;8.850;2023-02-15T07:33:04;139.82;;;34.22;;
24305;SDS011;12423;48.768;8.850;2023-02-15T07:35:24;138.50;;;33.97;;
24305;SDS011;12423;48.768;8.850;2023-02-15T07:37:25;134.57;;;32.53;;
24305;SDS011;12423;48.768;8.850;2023-02-15T07:39:26;135.55;;;33.35;;
24305;SDS011;12423;48.768;8.850;2023-02-15T07:41:27;132.95;;;32.17;;
24305;SDS011;12423;48.768;8.850;2023-02-15T07:43:28;133.65;;;33.05;;
24305;SDS011;12423;48.768;8.850;2023-02-15T07:45:30;133.65;;;32.67;;
24305;SDS011;12423;48.768;8.850;2023-02-15T07:47:31;135.45;;;34.20;;
24305;SDS011;12423;48.768;8.850;2023-02-15T07:49:32;132.75;;;32.15;;
24305;SDS011;12423;48.768;8.850;2023-02-15T07:51:33;131.95;;;31.45;;
24305;SDS011;12423;48.768;8.850;2023-02-15T07:53:35;132.55;;;31.92;;
24305;SDS011;12423;48.768;8.850;2023-02-15T07:55:36;146.50;;;35.10;;
24305;SDS011;12423;48.768;8.850;2023-02-15T07:57:41;143.17;;;34.20;;
24305;SDS011;12423;48.768;8.850;2023-02-15T07:59:43;132.52;;;31.60;;
24305;SDS011;12423;48.768;8.850;2023-02-15T08:01:44;134.43;;;32.50;;
24305;SDS011;12423;48.768;8.850;2023-02-15T08:03:45;133.32;;;32.05;;
24305;SDS011;12423;48.768;8.850;2023-02-15T08:05:46;133.82;;;32.05;;
24305;SDS011;12423;48.768;8.850;2023-02-15T08:07:47;134.43;;;32.40;;
24305;SDS011;12423;48.768;8.850;2023-02-15T08:09:48;111.20;;;27.33;;
24305;SDS011;12423;48.768;8.850;2023-02-15T08:11:49;63.00;;;15.80;;
24305;SDS011;12423;48.768;8.850;2023-02-15T08:16:24;114.33;;;27.77;;
24305;SDS011;12423;48.768;8.850;2023-02-15T08:18:27;135.70;;;33.10;;
24305;SDS011;12423;48.768;8.850;2023-02-15T08:20:28;129.17;;;31.27;;
24305;SDS011;12423;48.768;8.850;2023-02-15T08:22:28;142.83;;;34.87;;
24305;SDS011;12423;48.768;8.850;2023-02-15T08:24:31;78.67;;;19.63;;
24305;SDS011;12423;48.768;8.850;2023-02-15T08:26:35;78.37;;;19.47;;
24305;SDS011;12423;48.768;8.850;2023-02-15T08:28:36;76.60;;;19.07;;
24305;SDS011;12423;48.768;8.850;2023-02-15T08:30:37;113.97;;;28.50;;
24305;SDS011;12423;48.768;8.850;2023-02-15T08:32:38;127.47;;;30.73;;
24305;SDS011;12423;48.768;8.850;2023-02-15T08:34:40;90.30;;;22.63;;
24305;SDS011;12423;48.768;8.850;2023-02-15T08:36:42;85.00;;;21.10;;
24305;SDS011;12423;48.768;8.850;2023-02-15T08:38:45;133.40;;;32.10;;
24305;SDS011;12423;48.768;8.850;2023-02-15T08:40:47;124.63;;;30.17;;
24305;SDS011;12423;48.768;8.850;2023-02-15T08:42:48;109.77;;;26.70;;
24305;SDS011;12423;48.768;8.850;2023-02-15T08:44:49;110.60;;;26.93;;
24305;SDS011;12423;48.768;8.850;2023-02-15T08:46:51;77.70;;;19.30;;
24305;SDS011;12423;48.768;8.850;2023-02-15T08:48:52;67.17;;;17.03;;
24305;SDS011;12423;48.768;8.850;2023-02-15T08:50:53;78.00;;;19.87;;
24305;SDS011;12423;48.768;8.850;2023-02-15T08:52:55;84.57;;;20.70;;
24305;SDS011;12423;48.768;8.850;2023-02-15T08:54:56;76.53;;;20.13;;
24305;SDS011;12423;48.768;8.850;2023-02-15T08:56:58;66.50;;;16.73;;
24305;SDS011;12423;48.768;8.850;2023-02-15T08:59:00;54.97;;;14.60;;
24305;SDS011;12423;48.768;8.850;2023-02-15T09:01:07;60.63;;;15.87;;
24305;SDS011;12423;48.768;8.850;2023-02-15T09:03:18;85.63;;;21.20;;
24305;SDS011;12423;48.768;8.850;2023-02-15T09:05:19;121.87;;;29.93;;
24305;SDS011;12423;48.768;8.850;2023-02-15T09:07:20;91.47;;;24.00;;
24305;SDS011;12423;48.768;8.850;2023-02-15T09:09:21;128.70;;;34.13;;
24305;SDS011;12423;48.768;8.850;2023-02-15T09:11:24;109.93;;;27.80;;
24305;SDS011;12423;48.768;8.850;2023-02-15T09:13:27;106.17;;;27.07;;
24305;SDS011;12423;48.768;8.850;2023-02-15T09:15:28;94.83;;;24.73;;
24305;SDS011;12423;48.768;8.850;2023-02-15T09:17:29;92.20;;;24.87;;
24305;SDS011;12423;48.768;8.850;2023-02-15T09:19:30;70.13;;;19.00;;
24305;SDS011;12423;48.768;8.850;2023-02-15T09:21:31;89.18;;;23.60;;
24305;SDS011;12423;48.768;8.850;2023-02-15T09:23:33;110.67;;;28.20;;
24305;SDS011;12423;48.768;8.850;2023-02-15T09:25:35;100.35;;;25.90;;
24305;SDS011;12423;48.768;8.850;2023-02-15T09:27:36;78.28;;;19.85;;
24305;SDS011;12423;48.768;8.850;2023-02-15T09:29:37;91.90;;;22.77;;
24305;SDS011;12423;48.768;8.850;2023-02-15T09:31:45;58.73;;;15.50;;
24305;SDS011;12423;48.768;8.850;2023-02-15T09:33:49;64.68;;;16.80;;
24305;SDS011;12423;48.768;8.850;2023-02-15T09:35:50;68.95;;;17.02;;
24305;SDS011;12423;48.768;8.850;2023-02-15T09:37:51;66.72;;;16.58;;
24305;SDS011;12423;48.768;8.850;2023-02-15T09:39:52;58.53;;;14.52;;
24305;SDS011;12423;48.768;8.850;2023-02-15T09:42:04;56.38;;;14.27;;
24305;SDS011;12423;48.768;8.850;2023-02-15T09:44:33;71.60;;;17.60;;
24305;SDS011;12423;48.768;8.850;2023-02-15T09:48:57;77.90;;;19.25;;
24305;SDS011;12423;48.768;8.850;2023-02-15T09:51:13;54.17;;;14.93;;
24305;SDS011;12423;48.768;8.850;2023-02-15T09:56:06;49.15;;;12.90;;
24305;SDS011;12423;48.768;8.850;2023-02-15T10:00:51;42.60;;;11.40;;
24305;SDS011;12423;48.768;8.850;2023-02-15T10:03:20;38.35;;;10.70;;
24305;SDS011;12423;48.768;8.850;2023-02-15T10:05:31;34.50;;;9.82;;
24305;SDS011;12423;48.768;8.850;2023-02-15T10:08:29;37.47;;;10.48;;
24305;SDS011;12423;48.768;8.850;2023-02-15T10:10:34;37.35;;;10.15;;
24305;SDS011;12423;48.768;8.850;2023-02-15T10:12:56;26.85;;;9.77;;
24305;SDS011;12423;48.768;8.850;2023-02-15T10:23:28;28.02;;;8.00;;
24305;SDS011;12423;48.768;8.850;2023-02-15T10:28:18;22.23;;;6.65;;
24305;SDS011;12423;48.768;8.850;2023-02-15T10:30:26;31.25;;;8.98;;
24305;SDS011;12423;48.768;8.850;2023-02-15T10:32:35;21.85;;;6.65;;
24305;SDS011;12423;48.768;8.850;2023-02-15T10:39:03;194.25;;;167.57;;
24305;SDS011;12423;48.768;8.850;2023-02-15T10:50:55;167.27;;;154.48;;
24305;SDS011;12423;48.768;8.850;2023-02-15T10:53:17;178.38;;;165.52;;
24305;SDS011;12423;48.768;8.850;2023-02-15T10:57:58;167.23;;;152.70;;
24305;SDS011;12423;48.768;8.850;2023-02-15T11:00:09;198.80;;;182.32;;
24305;SDS011;12423;48.768;8.850;2023-02-15T11:02:39;92.32;;;85.70;;
24305;SDS011;12423;48.768;8.850;2023-02-15T11:07:16;65.18;;;59.72;;
24305;SDS011;12423;48.768;8.850;2023-02-15T11:09:21;75.88;;;70.03;;
24305;SDS011;12423;48.768;8.850;2023-02-15T11:11:32;65.75;;;60.45;;
24305;SDS011;12423;48.768;8.850;2023-02-15T11:13:38;165.13;;;152.80;;
24305;SDS011;12423;48.768;8.850;2023-02-15T11:15:51;62.08;;;57.53;;
24305;SDS011;12423;48.768;8.850;2023-02-15T11:18:06;35.78;;;32.25;;
24305;SDS011;12423;48.768;8.850;2023-02-15T11:20:18;37.30;;;34.15;;
24305;SDS011;12423;48.768;8.850;2023-02-15T11:22:21;20.55;;;12.60;;
24305;SDS011;12423;48.768;8.850;2023-02-15T11:24:24;13.23;;;10.98;;
24305;SDS011;12423;48.768;8.850;2023-02-15T11:28:38;13.80;;;6.97;;
24305;SDS011;12423;48.768;8.850;2023-02-15T11:30:43;13.55;;;12.25;;
24305;SDS011;12423;48.768;8.850;2023-02-15T11:32:53;13.27;;;8.95;;
24305;SDS011;12423;48.768;8.850;2023-02-15T11:35:04;11.85;;;6.93;;
24305;SDS011;12423;48.768;8.850;2023-02-15T11:37:11;25.97;;;23.77;;
24305;SDS011;12423;48.768;8.850;2023-02-15T11:39:17;8.10;;;5.15;;
24305;SDS011;12423;48.768;8.850;2023-02-15T11:41:21;16.77;;;15.27;;
24305;SDS011;12423;48.768;8.850;2023-02-15T11:43:28;48.80;;;45.47;;
24305;SDS011;12423;48.768;8.850;2023-02-15T11:45:32;25.10;;;23.20;;
24305;SDS011;12423;48.768;8.850;2023-02-15T11:47:38;30.48;;;28.40;;
24305;SDS011;12423;48.768;8.850;2023-02-15T11:49:39;30.40;;;28.25;;
24305;SDS011;12423;48.768;8.850;2023-02-15T11:51:40;18.73;;;17.23;;
24305;SDS011;12423;48.768;8.850;2023-02-15T11:53:42;10.43;;;6.15;;
24305;SDS011;12423;48.768;8.850;2023-02-15T11:55:45;11.45;;;6.35;;
24305;SDS011;12423;48.768;8.850;2023-02-15T12:00:32;10.80;;;6.30;;
24305;SDS011;12423;48.768;8.850;2023-02-15T12:04:40;49.15;;;45.50;;
24305;SDS011;12423;48.768;8.850;2023-02-15T12:06:46;9.05;;;8.15;;
24305;SDS011;12423;48.768;8.850;2023-02-15T12:08:54;14.20;;;12.90;;
24305;SDS011;12423;48.768;8.850;2023-02-15T12:11:03;80.78;;;75.57;;
24305;SDS011;12423;48.768;8.850;2023-02-15T12:15:17;168.35;;;157.00;;
24305;SDS011;12423;48.768;8.850;2023-02-15T12:17:39;10.20;;;9.15;;
24305;SDS011;12423;48.768;8.850;2023-02-15T12:19:42;14.55;;;13.15;;
24305;SDS011;12423;48.768;8.850;2023-02-15T12:21:44;9.80;;;5.80;;
24305;SDS011;12423;48.768;8.850;2023-02-15T12:24:25;9.15;;;7.97;;
24305;SDS011;12423;48.768;8.850;2023-02-15T12:26:54;8.40;;;6.78;;
24305;SDS011;12423;48.768;8.850;2023-02-15T12:28:44;12.63;;;8.02;;
24305;SDS011;12423;48.768;8.850;2023-02-15T12:30:52;7.60;;;4.80;;
24305;SDS011;12423;48.768;8.850;2023-02-15T12:35:35;12.40;;;5.55;;
24305;SDS011;12423;48.768;8.850;2023-02-15T12:37:38;8.55;;;5.63;;
24305;SDS011;12423;48.768;8.850;2023-02-15T12:39:39;32.40;;;29.73;;
24305;SDS011;12423;48.768;8.850;2023-02-15T12:41:57;260.88;;;241.85;;
24305;SDS011;12423;48.768;8.850;2023-02-15T12:44:05;93.00;;;86.43;;
24305;SDS011;12423;48.768;8.850;2023-02-15T12:46:23;7.03;;;4.88;;
24305;SDS011;12423;48.768;8.850;2023-02-15T12:48:26;8.40;;;5.35;;
24305;SDS011;12423;48.768;8.850;2023-02-15T12:50:27;8.23;;;5.55;;
24305;SDS011;12423;48.768;8.850;2023-02-15T12:52:32;9.43;;;5.38;;
24305;SDS011;12423;48.768;8.850;2023-02-15T12:54:40;8.18;;;5.18;;
24305;SDS011;12423;48.768;8.850;2023-02-15T12:56:42;8.02;;;4.97;;
24305;SDS011;12423;48.768;8.850;2023-02-15T12:58:43;10.00;;;5.20;;
24305;SDS011;12423;48.768;8.850;2023-02-15T13:00:46;13.25;;;5.10;;
24305;SDS011;12423;48.768;8.850;2023-02-15T13:02:48;9.27;;;5.35;;
24305;SDS011;12423;48.768;8.850;2023-02-15T13:04:52;8.85;;;5.22;;
24305;SDS011;12423;48.768;8.850;2023-02-15T13:06:55;9.82;;;5.57;;
24305;SDS011;12423;48.768;8.850;2023-02-15T13:09:14;10.05;;;6.35;;
24305;SDS011;12423;48.768;8.850;2023-02-15T13:11:19;10.32;;;6.50;;
24305;SDS011;12423;48.768;8.850;2023-02-15T13:13:29;11.10;;;7.18;;
24305;SDS011;12423;48.768;8.850;2023-02-15T13:15:34;10.27;;;6.30;;
24305;SDS011;12423;48.768;8.850;2023-02-15T13:17:37;12.15;;;8.13;;
24305;SDS011;12423;48.768;8.850;2023-02-15T13:19:45;14.45;;;9.27;;
24305;SDS011;12423;48.768;8.850;2023-02-15T13:21:49;36.85;;;34.17;;
24305;SDS011;12423;48.768;8.850;2023-02-15T13:23:55;87.55;;;81.43;;
24305;SDS011;12423;48.768;8.850;2023-02-15T13:26:02;131.73;;;122.85;;
24305;SDS011;12423;48.768;8.850;2023-02-15T13:28:05;190.48;;;177.23;;
24305;SDS011;12423;48.768;8.850;2023-02-15T13:32:26;14.50;;;13.10;;
24305;SDS011;12423;48.768;8.850;2023-02-15T13:34:34;17.08;;;15.45;;